createdAt,value
2023-01-08T00:00:30.334Z,1.45
2023-01-08T00:03:16.148Z,1.55
2023-01-08T00:06:03.107Z,1.25
2023-01-08T00:08:48.453Z,1.48
2023-01-08T00:11:33.946Z,1.30
2023-01-08T00:14:19.352Z,1.42
2023-01-08T00:17:04.873Z,1.30
2023-01-08T00:19:50.375Z,1.65
2023-01-08T00:22:35.711Z,1.20
2023-01-08T00:25:21.317Z,1.48
2023-01-08T00:28:07.081Z,1.40
2023-01-08T00:30:52.559Z,1.45
2023-01-08T00:33:38.456Z,1.42
2023-01-08T00:36:23.694Z,1.40
2023-01-08T00:39:09.291Z,1.20
2023-01-08T00:41:54.742Z,1.55
2023-01-08T00:44:39.972Z,1.35
2023-01-08T00:47:25.723Z,1.35
2023-01-08T00:50:11.524Z,1.30
2023-01-08T00:52:56.780Z,1.40
2023-01-08T00:55:42.043Z,1.42
2023-01-08T00:58:27.486Z,1.98
2023-01-08T01:01:14.728Z,2.13
2023-01-08T01:03:59.939Z,1.38
2023-01-08T01:06:45.489Z,1.20
2023-01-08T01:09:31.019Z,1.38
2023-01-08T01:12:16.365Z,1.40
2023-01-08T01:15:01.974Z,1.30
2023-01-08T01:17:47.311Z,1.27
2023-01-08T01:20:33.469Z,1.30
2023-01-08T01:23:18.944Z,1.25
2023-01-08T01:26:04.541Z,1.05
2023-01-08T01:28:51.645Z,1.17
2023-01-08T01:31:36.826Z,1.08
2023-01-08T01:34:22.202Z,0.95
2023-01-08T01:37:07.739Z,1.05
2023-01-08T01:39:53.377Z,0.90
2023-01-08T01:42:41.535Z,0.90
2023-01-08T01:45:27.739Z,0.93
2023-01-08T01:48:15.062Z,1.20
2023-01-08T01:51:00.197Z,1.08
2023-01-08T01:53:45.858Z,1.27
2023-01-08T01:56:32.306Z,1.23
2023-01-08T01:59:17.479Z,1.40
2023-01-08T02:02:03.042Z,1.48
2023-01-08T02:04:48.329Z,1.30
2023-01-08T02:07:43.325Z,1.70
2023-01-08T02:10:48.365Z,1.38
2023-01-08T02:13:38.407Z,1.58
2023-01-08T02:16:47.963Z,1.65
2023-01-08T02:19:52.898Z,1.65
2023-01-08T02:23:01.323Z,1.98
2023-01-08T02:26:13.369Z,1.95
2023-01-08T02:29:04.648Z,1.77
2023-01-08T02:31:50.319Z,2.00
2023-01-08T02:34:35.863Z,1.95
2023-01-08T02:37:21.664Z,1.60
2023-01-08T02:40:13.709Z,1.63
2023-01-08T02:43:17.941Z,1.50
2023-01-08T02:46:04.491Z,1.30
2023-01-08T02:48:54.467Z,1.40
2023-01-08T02:51:51.791Z,1.10
2023-01-08T02:54:37.982Z,1.15
2023-01-08T02:57:24.141Z,1.00
2023-01-08T03:00:10.140Z,1.15
2023-01-08T03:03:12.551Z,1.13
2023-01-08T03:06:10.297Z,1.00
2023-01-08T03:08:55.703Z,1.00
2023-01-08T03:11:57.801Z,1.02
2023-01-08T03:15:06.562Z,1.00
2023-01-08T03:17:57.210Z,0.98
2023-01-08T03:20:44.673Z,1.10
2023-01-08T03:23:33.571Z,0.90
2023-01-08T03:26:23.050Z,1.00
2023-01-08T03:29:13.545Z,1.13
2023-01-08T03:32:04.832Z,1.00
2023-01-08T03:34:52.715Z,0.98
2023-01-08T03:37:43.455Z,0.77
2023-01-08T03:40:35.147Z,0.90
2023-01-08T03:43:20.477Z,1.02
2023-01-08T03:46:13.716Z,1.00
2023-01-08T03:49:00.324Z,0.88
2023-01-08T03:51:47.685Z,0.73
2023-01-08T03:54:35.872Z,0.75
2023-01-08T03:57:21.465Z,0.70
2023-01-08T04:00:07.111Z,0.88
2023-01-08T04:02:52.260Z,0.88
2023-01-08T04:05:37.610Z,0.80
2023-01-08T04:08:22.900Z,0.88
2023-01-08T04:11:08.397Z,0.57
2023-01-08T04:13:53.803Z,1.00
2023-01-08T04:16:40.786Z,0.90
2023-01-08T04:19:26.077Z,1.00
2023-01-08T04:22:11.890Z,1.13
2023-01-08T04:24:57.083Z,0.80
2023-01-08T04:27:42.620Z,1.00
2023-01-08T04:30:28.091Z,1.00
2023-01-08T04:33:13.624Z,1.00
2023-01-08T04:35:58.930Z,1.00
2023-01-08T04:38:44.504Z,1.23
2023-01-08T04:41:29.917Z,0.93
2023-01-08T04:44:15.300Z,1.33
2023-01-08T04:47:00.993Z,1.00
2023-01-08T04:49:46.380Z,1.08
2023-01-08T04:52:31.824Z,1.00
2023-01-08T04:55:17.245Z,1.00
2023-01-08T04:58:02.726Z,0.75
2023-01-08T05:00:48.162Z,0.85
2023-01-08T05:03:33.589Z,0.82
2023-01-08T05:06:19.025Z,0.90
2023-01-08T05:09:04.417Z,0.73
2023-01-08T05:11:50.110Z,0.82
2023-01-08T05:14:35.388Z,1.00
2023-01-08T05:17:20.855Z,0.82
2023-01-08T05:20:06.794Z,0.85
2023-01-08T05:22:52.455Z,0.77
2023-01-08T05:25:37.615Z,1.10
2023-01-08T05:28:23.097Z,0.80
2023-01-08T05:31:09.200Z,1.00
2023-01-08T05:33:54.567Z,0.77
2023-01-08T05:36:39.951Z,0.93
2023-01-08T05:39:25.612Z,0.82
2023-01-08T05:42:10.848Z,0.82
2023-01-08T05:44:56.391Z,0.90
2023-01-08T05:47:41.760Z,0.80
2023-01-08T05:50:27.234Z,1.00
2023-01-08T05:53:12.397Z,0.73
2023-01-08T05:56:09.146Z,0.80
2023-01-08T05:58:55.779Z,0.80
2023-01-08T06:01:41.028Z,0.80
2023-01-08T06:04:26.680Z,1.20
2023-01-08T06:07:12.250Z,1.40
2023-01-08T06:09:57.513Z,1.50
2023-01-08T06:12:43.066Z,1.50
2023-01-08T06:15:28.453Z,1.27
2023-01-08T06:18:14.042Z,1.27
2023-01-08T06:20:59.769Z,1.55
2023-01-08T06:23:45.191Z,1.20
2023-01-08T06:26:30.467Z,1.30
2023-01-08T06:29:15.861Z,1.42
2023-01-08T06:32:01.265Z,1.40
2023-01-08T06:34:46.548Z,1.60
2023-01-08T06:37:32.030Z,1.58
2023-01-08T06:40:18.201Z,1.65
2023-01-08T06:43:05.386Z,1.73
2023-01-08T06:45:58.424Z,1.50
2023-01-08T06:48:43.758Z,1.50
2023-01-08T06:51:29.305Z,2.15
2023-01-08T06:54:14.792Z,1.67
2023-01-08T06:57:00.685Z,1.80
2023-01-08T06:59:46.147Z,1.58
2023-01-08T07:02:32.191Z,1.88
2023-01-08T07:05:18.013Z,1.75
2023-01-08T07:08:03.677Z,1.23
2023-01-08T07:10:49.181Z,1.80
2023-01-08T07:13:35.024Z,1.50
2023-01-08T07:16:20.436Z,1.30
2023-01-08T07:19:05.920Z,1.45
2023-01-08T07:21:51.372Z,1.92
2023-01-08T07:24:37.176Z,1.55
2023-01-08T07:27:22.547Z,1.70
2023-01-08T07:30:15.180Z,1.55
2023-01-08T07:33:06.789Z,1.50
2023-01-08T07:35:56.361Z,1.55
2023-01-08T07:38:43.048Z,1.80
2023-01-08T07:41:28.919Z,1.60
2023-01-08T07:44:15.581Z,1.50
2023-01-08T07:47:01.261Z,1.60
2023-01-08T07:49:46.533Z,1.90
2023-01-08T07:52:32.086Z,1.65
2023-01-08T07:55:17.707Z,1.50
2023-01-08T07:58:10.876Z,1.60
2023-01-08T08:00:59.037Z,1.42
2023-01-08T08:03:46.219Z,1.40
2023-01-08T08:06:31.706Z,1.85
2023-01-08T08:09:17.273Z,2.00
2023-01-08T08:12:03.110Z,1.60
2023-01-08T08:14:48.885Z,1.42
2023-01-08T08:17:34.726Z,1.42
2023-01-08T08:20:20.263Z,1.40
2023-01-08T08:23:09.285Z,1.70
2023-01-08T08:25:54.528Z,1.50
2023-01-08T08:28:39.976Z,1.60
2023-01-08T08:31:25.394Z,1.70
2023-01-08T08:34:10.823Z,2.05
2023-01-08T08:36:56.369Z,1.50
2023-01-08T08:39:41.732Z,1.90
2023-01-08T08:42:27.490Z,1.42
2023-01-08T08:45:13.188Z,1.58
2023-01-08T08:47:58.554Z,1.55
2023-01-08T08:50:44.200Z,1.13
2023-01-08T08:53:29.538Z,1.55
2023-01-08T08:56:14.958Z,1.60
2023-01-08T08:59:00.359Z,1.40
2023-01-08T09:01:45.551Z,1.35
2023-01-08T09:04:32.545Z,1.30
2023-01-08T09:07:17.798Z,1.50
2023-01-08T09:10:04.143Z,1.40
2023-01-08T09:12:50.140Z,1.60
2023-01-08T09:15:37.056Z,1.30
2023-01-08T09:18:22.553Z,1.90
2023-01-08T09:21:08.697Z,1.65
2023-01-08T09:23:53.758Z,1.10
2023-01-08T09:26:39.305Z,1.30
2023-01-08T09:29:25.132Z,1.67
2023-01-08T09:32:10.511Z,1.73
2023-01-08T09:34:55.737Z,1.40
2023-01-08T09:37:41.412Z,1.67
2023-01-08T09:40:35.176Z,1.70
2023-01-08T09:43:22.897Z,1.30
2023-01-08T09:46:09.881Z,1.55
2023-01-08T09:49:02.180Z,2.08
2023-01-08T09:51:47.973Z,1.33
2023-01-08T09:54:34.192Z,1.70
2023-01-08T09:57:21.405Z,1.38
2023-01-08T10:00:24.439Z,1.67
2023-01-08T10:03:12.114Z,1.48
2023-01-08T10:05:57.776Z,1.35
2023-01-08T10:11:40.699Z,1.42
2023-01-08T10:14:30.650Z,1.48
2023-01-08T10:17:36.708Z,1.70
2023-01-08T10:20:24.643Z,1.88
2023-01-08T10:23:13.247Z,1.65
2023-01-08T10:26:03.099Z,1.20
2023-01-08T10:28:48.477Z,1.40
2023-01-08T10:31:38.463Z,1.52
2023-01-08T10:34:26.662Z,1.55
2023-01-08T10:37:16.972Z,1.30
2023-01-08T10:40:07.860Z,1.40
2023-01-08T10:42:54.863Z,1.50
2023-01-08T10:45:42.213Z,1.27
2023-01-08T10:48:38.922Z,1.48
2023-01-08T10:51:27.341Z,1.50
2023-01-08T10:54:40.350Z,1.52
2023-01-08T10:57:29.744Z,1.50
2023-01-08T11:00:27.433Z,1.50
2023-01-08T11:03:40.793Z,1.60
2023-01-08T11:06:27.811Z,1.83
2023-01-08T11:09:25.531Z,1.40
2023-01-08T11:12:35.656Z,1.90
2023-01-08T11:15:29.014Z,1.60
2023-01-08T11:18:25.817Z,1.92
2023-01-08T11:21:33.086Z,1.65
2023-01-08T11:24:24.528Z,1.75
2023-01-08T11:27:12.969Z,1.55
2023-01-08T11:30:28.308Z,1.50
2023-01-08T11:33:18.381Z,1.50
2023-01-08T11:36:25.804Z,2.05
2023-01-08T11:39:11.087Z,1.88
2023-01-08T11:42:17.718Z,1.70
2023-01-08T11:45:17.712Z,1.60
2023-01-08T11:48:30.203Z,1.85
2023-01-08T11:54:32.387Z,1.80
2023-01-08T11:57:26.703Z,1.85
2023-01-08T12:00:34.514Z,1.60
2023-01-08T12:04:08.395Z,1.50
2023-01-08T12:07:00.041Z,1.38
2023-01-08T12:09:52.775Z,1.35
2023-01-08T12:12:57.504Z,1.40
2023-01-08T12:15:58.069Z,1.52
2023-01-08T12:18:54.420Z,1.30
2023-01-08T12:21:48.429Z,1.33
2023-01-08T12:25:11.421Z,1.50
2023-01-08T12:28:17.016Z,1.40
2023-01-08T12:31:34.824Z,1.65
2023-01-08T12:34:34.161Z,1.58
2023-01-08T12:37:35.146Z,1.30
2023-01-08T12:40:32.953Z,1.40
2023-01-08T12:43:31.696Z,1.15
2023-01-08T12:46:17.928Z,1.30
2023-01-08T12:49:11.165Z,1.70
2023-01-08T12:52:04.153Z,1.38
2023-01-08T12:55:09.939Z,1.30
2023-01-08T12:58:18.961Z,1.35
2023-01-08T13:01:23.829Z,1.30
2023-01-08T13:04:11.137Z,1.38
2023-01-08T13:07:05.056Z,1.20
2023-01-08T13:09:59.983Z,1.35
2023-01-08T13:12:51.158Z,1.20
2023-01-08T13:15:36.598Z,1.10
2023-01-08T13:18:22.371Z,1.17
2023-01-08T13:21:11.138Z,1.13
2023-01-08T13:24:06.623Z,1.00
2023-01-08T13:26:53.639Z,1.20
2023-01-08T13:29:44.925Z,0.90
2023-01-08T13:32:47.399Z,1.10
2023-01-08T13:38:21.096Z,1.05
2023-01-08T13:41:23.803Z,1.05
2023-01-08T13:44:42.553Z,1.15
2023-01-08T13:47:30.143Z,1.33
2023-01-08T13:50:21.398Z,1.00
2023-01-08T13:53:11.906Z,1.25
2023-01-08T13:56:08.463Z,1.08
2023-01-08T13:58:54.696Z,1.35
2023-01-08T14:01:40.558Z,1.10
2023-01-08T14:04:25.970Z,1.10
2023-01-08T14:07:14.468Z,1.10
2023-01-08T14:10:09.493Z,1.05
2023-01-08T14:13:06.949Z,1.20
2023-01-08T14:15:52.642Z,1.30
2023-01-08T14:18:41.309Z,1.02
2023-01-08T14:21:27.208Z,0.90
2023-01-08T14:24:16.543Z,1.17
2023-01-08T14:27:02.144Z,1.35
2023-01-08T14:29:47.744Z,1.20
2023-01-08T14:32:33.146Z,1.27
2023-01-08T14:35:23.403Z,1.05
2023-01-08T14:38:14.680Z,1.00
2023-01-08T14:41:03.799Z,0.85
2023-01-08T14:43:50.142Z,1.10
2023-01-08T14:46:35.439Z,0.80
2023-01-08T14:49:28.233Z,1.20
2023-01-08T14:55:03.394Z,1.25
2023-01-08T14:57:54.736Z,1.10
2023-01-08T15:00:39.968Z,1.13
2023-01-08T15:03:37.256Z,1.05
2023-01-08T15:06:28.221Z,1.42
2023-01-08T15:09:30.407Z,1.30
2023-01-08T15:12:24.850Z,1.05
2023-01-08T15:15:23.133Z,1.30
2023-01-08T15:18:11.895Z,1.10
2023-01-08T15:20:57.725Z,1.00
2023-01-08T15:23:46.523Z,1.15
2023-01-08T15:26:32.142Z,1.23
2023-01-08T15:29:26.927Z,1.42
2023-01-08T15:32:22.503Z,1.30
2023-01-08T15:35:16.065Z,1.20
2023-01-08T15:38:01.823Z,1.42
2023-01-08T15:40:48.282Z,1.25
2023-01-08T15:43:33.602Z,1.20
2023-01-08T15:46:18.893Z,1.10
2023-01-08T15:49:04.481Z,1.15
2023-01-08T15:51:51.822Z,1.13
2023-01-08T15:54:38.603Z,1.33
2023-01-08T15:57:24.472Z,1.33
2023-01-08T16:00:13.093Z,1.20
2023-01-08T16:03:01.252Z,1.20
2023-01-08T16:05:46.413Z,1.23
2023-01-08T16:08:31.917Z,1.17
2023-01-08T16:11:18.960Z,1.35
2023-01-08T16:14:04.122Z,1.20
2023-01-08T16:16:49.821Z,1.20
2023-01-08T16:19:35.515Z,1.17
2023-01-08T16:22:21.242Z,1.48
2023-01-08T16:25:07.561Z,1.50
2023-01-08T16:27:53.193Z,1.25
2023-01-08T16:30:39.430Z,1.13
2023-01-08T16:33:24.911Z,1.30
2023-01-08T16:36:10.638Z,1.20
2023-01-08T16:38:55.774Z,1.10
2023-01-08T16:41:41.084Z,1.20
2023-01-08T16:44:32.400Z,1.13
2023-01-08T16:47:17.874Z,1.10
2023-01-08T16:50:03.402Z,1.00
2023-01-08T16:52:50.695Z,1.00
2023-01-08T16:55:42.306Z,1.20
2023-01-08T16:58:29.370Z,1.40
2023-01-08T17:01:14.795Z,1.00
2023-01-08T17:04:00.688Z,1.08
2023-01-08T17:06:46.932Z,1.33
2023-01-08T17:09:32.849Z,1.30
2023-01-08T17:12:22.510Z,0.90
2023-01-08T17:15:08.304Z,1.33
2023-01-08T17:17:53.432Z,1.42
2023-01-08T17:20:38.897Z,1.10
2023-01-08T17:23:27.209Z,1.70
2023-01-08T17:26:14.926Z,2.10
2023-01-08T17:29:00.535Z,1.80
2023-01-08T17:31:46.018Z,2.10
2023-01-08T17:34:31.490Z,1.83
2023-01-08T17:37:16.890Z,1.90
2023-01-08T17:40:02.385Z,1.50
2023-01-08T17:42:47.694Z,1.67
2023-01-08T17:45:33.130Z,1.77
2023-01-08T17:48:18.444Z,1.65
2023-01-08T17:51:09.247Z,1.45
2023-01-08T17:53:56.361Z,1.60
2023-01-08T17:56:41.946Z,1.50
2023-01-08T17:59:27.309Z,1.70
2023-01-08T18:02:15.903Z,1.60
2023-01-08T18:05:01.747Z,1.60
2023-01-08T18:07:47.394Z,1.40
2023-01-08T18:10:32.716Z,1.50
2023-01-08T18:13:18.152Z,1.60
2023-01-08T18:16:12.383Z,1.30
2023-01-08T18:18:59.898Z,1.50
2023-01-08T18:21:44.946Z,1.25
2023-01-08T18:24:30.445Z,1.70
2023-01-08T18:27:15.888Z,1.40
2023-01-08T18:30:01.267Z,1.70
2023-01-08T18:32:46.573Z,1.40
2023-01-08T18:35:32.642Z,1.40
2023-01-08T18:38:18.023Z,1.23
2023-01-08T18:41:04.481Z,2.15
2023-01-08T18:43:49.838Z,1.50
2023-01-08T18:46:35.659Z,2.03
2023-01-08T18:49:21.308Z,1.50
2023-01-08T18:52:06.716Z,1.30
2023-01-08T18:54:53.557Z,1.58
2023-01-08T18:57:39.536Z,1.60
2023-01-08T19:00:26.319Z,1.70
2023-01-08T19:03:12.299Z,1.45
2023-01-08T19:05:57.522Z,1.70
2023-01-08T19:08:43.943Z,1.48
2023-01-08T19:11:29.164Z,1.70
2023-01-08T19:14:14.878Z,1.40
2023-01-08T19:17:00.198Z,1.10
2023-01-08T19:19:45.469Z,1.25
2023-01-08T19:22:32.539Z,1.50
2023-01-08T19:25:18.286Z,1.20
2023-01-08T19:28:03.481Z,1.90
2023-01-08T19:30:56.052Z,1.55
2023-01-08T19:33:41.823Z,1.70
2023-01-08T19:36:27.501Z,1.50
2023-01-08T19:39:12.854Z,1.70
2023-01-08T19:42:17.418Z,1.73
2023-01-08T19:45:02.476Z,1.30
2023-01-08T19:47:48.157Z,1.50
2023-01-08T19:50:34.141Z,1.60
2023-01-08T19:53:20.155Z,1.30
2023-01-08T19:56:07.450Z,1.63
2023-01-08T19:58:52.719Z,1.52
2023-01-08T20:01:38.989Z,1.40
2023-01-08T20:04:24.264Z,1.83
2023-01-08T20:07:10.397Z,1.58
2023-01-08T20:09:55.877Z,1.65
2023-01-08T20:12:41.177Z,1.50
2023-01-08T20:15:29.021Z,2.00
2023-01-08T20:18:14.346Z,1.50
2023-01-08T20:21:05.230Z,1.60
2023-01-08T20:24:03.617Z,1.65
2023-01-08T20:26:49.295Z,1.50
2023-01-08T20:29:35.448Z,1.75
2023-01-08T20:32:23.330Z,1.48
2023-01-08T20:35:09.241Z,1.27
2023-01-08T20:37:54.786Z,1.83
2023-01-08T20:40:40.235Z,1.20
2023-01-08T20:43:25.774Z,1.60
2023-01-08T20:46:13.625Z,1.25
2023-01-08T20:49:04.673Z,1.50
2023-01-08T20:51:58.632Z,1.75
2023-01-08T20:54:44.504Z,1.25
2023-01-08T20:57:29.938Z,1.38
2023-01-08T21:00:15.638Z,1.33
2023-01-08T21:03:01.183Z,1.20
2023-01-08T21:05:46.746Z,1.27
2023-01-08T21:08:32.068Z,1.40
2023-01-08T21:11:18.821Z,1.50
2023-01-08T21:14:05.092Z,1.27
2023-01-08T21:16:50.735Z,1.23
2023-01-08T21:19:36.264Z,1.60
2023-01-08T21:22:21.798Z,2.20
2023-01-08T21:25:07.687Z,1.33
2023-01-08T21:27:53.123Z,1.70
2023-01-08T21:30:38.877Z,1.98
2023-01-08T21:33:24.963Z,1.35
2023-01-08T21:36:18.997Z,1.40
2023-01-08T21:39:04.222Z,1.60
2023-01-08T21:42:08.200Z,1.55
2023-01-08T21:45:11.955Z,1.35
2023-01-08T21:47:58.738Z,1.63
2023-01-08T21:50:44.422Z,1.40
2023-01-08T21:53:35.347Z,1.10
2023-01-08T21:56:21.896Z,1.45
2023-01-08T21:59:07.363Z,1.40
2023-01-08T22:01:53.171Z,1.20
2023-01-08T22:04:38.435Z,1.45
2023-01-08T22:07:25.756Z,1.33
2023-01-08T22:10:11.686Z,1.60
2023-01-08T22:12:57.063Z,1.40
2023-01-08T22:15:42.921Z,1.30
2023-01-08T22:18:28.729Z,1.15
2023-01-08T22:21:14.458Z,1.20
2023-01-08T22:24:00.054Z,1.40
2023-01-08T22:26:45.474Z,1.25
2023-01-08T22:29:31.040Z,1.20
2023-01-08T22:32:16.271Z,1.23
2023-01-08T22:35:01.886Z,1.48
2023-01-08T22:37:47.411Z,1.30
2023-01-08T22:40:32.769Z,1.50
2023-01-08T22:43:18.293Z,1.38
2023-01-08T22:46:04.062Z,1.10
2023-01-08T22:48:49.566Z,1.15
2023-01-08T22:51:35.103Z,1.20
2023-01-08T22:54:20.641Z,1.20
2023-01-08T22:57:07.857Z,1.13
2023-01-08T22:59:53.191Z,1.02
2023-01-08T23:02:38.760Z,1.20
2023-01-08T23:05:24.196Z,1.30
2023-01-08T23:08:09.802Z,0.93
2023-01-08T23:10:57.276Z,1.33
2023-01-08T23:13:42.853Z,1.15
2023-01-08T23:16:28.392Z,1.00
2023-01-08T23:19:14.155Z,1.20
2023-01-08T23:21:59.683Z,1.40
2023-01-08T23:24:44.753Z,1.33
2023-01-08T23:27:32.145Z,1.13
2023-01-08T23:30:17.409Z,1.42
2023-01-08T23:33:02.877Z,1.40
2023-01-08T23:35:48.656Z,1.30
2023-01-08T23:38:34.057Z,1.05
2023-01-08T23:41:22.929Z,1.38
2023-01-08T23:44:12.061Z,1.30
2023-01-08T23:46:57.353Z,1.30
2023-01-08T23:49:42.732Z,1.23
2023-01-08T23:52:28.176Z,1.20
2023-01-08T23:55:13.374Z,1.35
2023-01-08T23:57:59.789Z,1.13
